Aviation Digital Data Service (ADDS)

Output produced by METARs form (1907 UTC 24 April 2014)
found at http://aviationweather.gov/adds/metars/
 
KJFK 241721Z 2418/2524 32024G34KT P6SM SKC 
     FM242200 33018G30KT P6SM SKC 
     FM250200 33012G18KT P6SM SKC 
     FM250400 33009KT P6SM SKC 
     FM251200 01005KT P6SM SCT250 
     FM251500 14006KT P6SM SCT250 
     FM251900 16015KT P6SM SCT100 BKN250